sensor_id;sensor_type;location;lat;lon;timestamp;temperature;humidity
10512;DHT22;5304;48.604;2.096;2023-06-10T00:01:53;21.40;99.90
10512;DHT22;5304;48.604;2.096;2023-06-10T00:04:42;21.40;99.90
10512;DHT22;5304;48.604;2.096;2023-06-10T00:07:27;21.40;99.90
10512;DHT22;5304;48.604;2.096;2023-06-10T00:10:11;21.40;99.90
10512;DHT22;5304;48.604;2.096;2023-06-10T00:12:56;21.40;99.90
10512;DHT22;5304;48.604;2.096;2023-06-10T00:15:40;21.40;99.90
10512;DHT22;5304;48.604;2.096;2023-06-10T00:18:24;21.40;99.90
10512;DHT22;5304;48.604;2.096;2023-06-10T00:21:11;21.30;99.90
10512;DHT22;5304;48.604;2.096;2023-06-10T00:23:57;21.20;99.90
10512;DHT22;5304;48.604;2.096;2023-06-10T00:26:46;21.10;99.90
10512;DHT22;5304;48.604;2.096;2023-06-10T00:29:31;21.10;99.90
10512;DHT22;5304;48.604;2.096;2023-06-10T00:32:15;21.20;99.90
10512;DHT22;5304;48.604;2.096;2023-06-10T00:35:00;21.30;99.90
10512;DHT22;5304;48.604;2.096;2023-06-10T00:37:44;21.20;99.90
10512;DHT22;5304;48.604;2.096;2023-06-10T00:40:29;21.20;99.90
10512;DHT22;5304;48.604;2.096;2023-06-10T00:43:14;21.10;99.90
10512;DHT22;5304;48.604;2.096;2023-06-10T00:45:58;21.10;99.90
10512;DHT22;5304;48.604;2.096;2023-06-10T00:48:43;21.10;99.90
10512;DHT22;5304;48.604;2.096;2023-06-10T00:51:29;21.20;99.90
10512;DHT22;5304;48.604;2.096;2023-06-10T00:54:14;21.10;99.90
10512;DHT22;5304;48.604;2.096;2023-06-10T00:57:01;21.10;99.90
10512;DHT22;5304;48.604;2.096;2023-06-10T00:59:49;21.20;99.90
10512;DHT22;5304;48.604;2.096;2023-06-10T01:02:35;21.20;99.90
10512;DHT22;5304;48.604;2.096;2023-06-10T01:05:20;21.10;99.90
10512;DHT22;5304;48.604;2.096;2023-06-10T01:08:32;21.20;99.90
10512;DHT22;5304;48.604;2.096;2023-06-10T01:11:28;21.30;99.90
10512;DHT22;5304;48.604;2.096;2023-06-10T01:14:13;21.30;99.90
10512;DHT22;5304;48.604;2.096;2023-06-10T01:16:58;21.20;99.90
10512;DHT22;5304;48.604;2.096;2023-06-10T01:19:52;21.20;99.90
10512;DHT22;5304;48.604;2.096;2023-06-10T01:22:37;21.10;99.90
10512;DHT22;5304;48.604;2.096;2023-06-10T01:25:22;21.00;99.90
10512;DHT22;5304;48.604;2.096;2023-06-10T01:28:36;20.90;99.90
10512;DHT22;5304;48.604;2.096;2023-06-10T01:34:18;20.80;99.90
10512;DHT22;5304;48.604;2.096;2023-06-10T01:37:04;20.80;99.90
10512;DHT22;5304;48.604;2.096;2023-06-10T01:39:49;20.80;99.90
10512;DHT22;5304;48.604;2.096;2023-06-10T01:42:34;20.70;99.90
10512;DHT22;5304;48.604;2.096;2023-06-10T01:45:20;20.60;99.90
10512;DHT22;5304;48.604;2.096;2023-06-10T01:48:05;20.70;99.90
10512;DHT22;5304;48.604;2.096;2023-06-10T01:50:49;20.70;99.90
10512;DHT22;5304;48.604;2.096;2023-06-10T01:53:34;20.60;99.90
10512;DHT22;5304;48.604;2.096;2023-06-10T01:56:18;20.50;99.90
10512;DHT22;5304;48.604;2.096;2023-06-10T01:59:04;20.30;99.90
10512;DHT22;5304;48.604;2.096;2023-06-10T02:01:48;20.30;99.90
10512;DHT22;5304;48.604;2.096;2023-06-10T02:04:33;20.20;99.90
10512;DHT22;5304;48.604;2.096;2023-06-10T02:07:18;20.10;99.90
10512;DHT22;5304;48.604;2.096;2023-06-10T02:10:02;20.00;99.90
10512;DHT22;5304;48.604;2.096;2023-06-10T02:12:47;20.10;99.90
10512;DHT22;5304;48.604;2.096;2023-06-10T02:15:31;20.10;99.90
10512;DHT22;5304;48.604;2.096;2023-06-10T02:18:16;20.20;99.90
10512;DHT22;5304;48.604;2.096;2023-06-10T02:21:00;20.10;99.90
10512;DHT22;5304;48.604;2.096;2023-06-10T02:23:45;20.00;99.90
10512;DHT22;5304;48.604;2.096;2023-06-10T02:26:29;19.90;99.90
10512;DHT22;5304;48.604;2.096;2023-06-10T02:29:13;19.90;99.90
10512;DHT22;5304;48.604;2.096;2023-06-10T02:31:58;20.00;99.90
10512;DHT22;5304;48.604;2.096;2023-06-10T02:34:43;20.00;99.90
10512;DHT22;5304;48.604;2.096;2023-06-10T02:37:27;19.90;99.90
10512;DHT22;5304;48.604;2.096;2023-06-10T02:40:11;19.90;99.90
10512;DHT22;5304;48.604;2.096;2023-06-10T02:42:56;19.80;99.90
10512;DHT22;5304;48.604;2.096;2023-06-10T02:45:41;19.80;99.90
10512;DHT22;5304;48.604;2.096;2023-06-10T02:48:27;19.90;99.90
10512;DHT22;5304;48.604;2.096;2023-06-10T02:51:12;19.90;99.90
10512;DHT22;5304;48.604;2.096;2023-06-10T02:53:57;19.90;99.90
10512;DHT22;5304;48.604;2.096;2023-06-10T02:56:41;19.80;99.90
10512;DHT22;5304;48.604;2.096;2023-06-10T02:59:25;19.70;99.90
10512;DHT22;5304;48.604;2.096;2023-06-10T03:02:11;19.60;99.90
10512;DHT22;5304;48.604;2.096;2023-06-10T03:04:56;19.50;99.90
10512;DHT22;5304;48.604;2.096;2023-06-10T03:07:40;19.40;99.90
10512;DHT22;5304;48.604;2.096;2023-06-10T03:10:24;19.40;99.90
10512;DHT22;5304;48.604;2.096;2023-06-10T03:13:09;19.40;99.90
10512;DHT22;5304;48.604;2.096;2023-06-10T03:15:54;19.30;99.90
10512;DHT22;5304;48.604;2.096;2023-06-10T03:18:39;19.20;99.90
10512;DHT22;5304;48.604;2.096;2023-06-10T03:21:24;19.20;99.90
10512;DHT22;5304;48.604;2.096;2023-06-10T03:24:09;19.10;99.90
10512;DHT22;5304;48.604;2.096;2023-06-10T03:26:54;19.10;99.90
10512;DHT22;5304;48.604;2.096;2023-06-10T03:29:39;19.00;99.90
10512;DHT22;5304;48.604;2.096;2023-06-10T03:32:24;18.80;99.90
10512;DHT22;5304;48.604;2.096;2023-06-10T03:35:08;18.90;99.90
10512;DHT22;5304;48.604;2.096;2023-06-10T03:37:53;18.90;99.90
10512;DHT22;5304;48.604;2.096;2023-06-10T03:40:38;18.80;99.90
10512;DHT22;5304;48.604;2.096;2023-06-10T03:43:22;18.80;99.90
10512;DHT22;5304;48.604;2.096;2023-06-10T03:46:07;18.90;99.90
10512;DHT22;5304;48.604;2.096;2023-06-10T03:48:51;18.80;99.90
10512;DHT22;5304;48.604;2.096;2023-06-10T03:51:36;18.70;99.90
10512;DHT22;5304;48.604;2.096;2023-06-10T03:54:21;18.70;99.90
10512;DHT22;5304;48.604;2.096;2023-06-10T03:57:05;18.80;99.90
10512;DHT22;5304;48.604;2.096;2023-06-10T03:59:50;18.70;99.90
10512;DHT22;5304;48.604;2.096;2023-06-10T04:02:34;18.70;99.90
10512;DHT22;5304;48.604;2.096;2023-06-10T04:05:22;18.60;99.90
10512;DHT22;5304;48.604;2.096;2023-06-10T04:08:07;18.50;99.90
10512;DHT22;5304;48.604;2.096;2023-06-10T04:10:52;18.70;99.90
10512;DHT22;5304;48.604;2.096;2023-06-10T04:13:36;18.70;99.90
10512;DHT22;5304;48.604;2.096;2023-06-10T04:16:21;18.60;99.90
10512;DHT22;5304;48.604;2.096;2023-06-10T04:19:05;18.70;99.90
10512;DHT22;5304;48.604;2.096;2023-06-10T04:21:50;18.70;99.90
10512;DHT22;5304;48.604;2.096;2023-06-10T04:24:34;18.80;99.90
10512;DHT22;5304;48.604;2.096;2023-06-10T04:27:19;18.90;99.90
10512;DHT22;5304;48.604;2.096;2023-06-10T04:30:04;18.90;99.90
10512;DHT22;5304;48.604;2.096;2023-06-10T04:32:49;19.00;99.90
10512;DHT22;5304;48.604;2.096;2023-06-10T04:35:33;19.10;99.90
10512;DHT22;5304;48.604;2.096;2023-06-10T04:38:18;19.00;99.90
10512;DHT22;5304;48.604;2.096;2023-06-10T04:41:02;18.90;99.90
10512;DHT22;5304;48.604;2.096;2023-06-10T04:43:46;18.90;99.90
10512;DHT22;5304;48.604;2.096;2023-06-10T04:46:31;18.80;99.90
10512;DHT22;5304;48.604;2.096;2023-06-10T04:49:16;18.90;99.90
10512;DHT22;5304;48.604;2.096;2023-06-10T04:52:00;19.10;99.90
10512;DHT22;5304;48.604;2.096;2023-06-10T04:54:44;19.00;99.90
10512;DHT22;5304;48.604;2.096;2023-06-10T04:57:29;18.90;99.90
10512;DHT22;5304;48.604;2.096;2023-06-10T05:00:14;18.90;99.90
10512;DHT22;5304;48.604;2.096;2023-06-10T05:02:58;18.80;99.90
10512;DHT22;5304;48.604;2.096;2023-06-10T05:05:43;18.90;99.90
10512;DHT22;5304;48.604;2.096;2023-06-10T05:08:27;19.00;99.90
10512;DHT22;5304;48.604;2.096;2023-06-10T05:11:12;19.00;99.90
10512;DHT22;5304;48.604;2.096;2023-06-10T05:13:57;19.00;99.90
10512;DHT22;5304;48.604;2.096;2023-06-10T05:16:41;18.90;99.90
10512;DHT22;5304;48.604;2.096;2023-06-10T05:19:27;19.00;99.90
10512;DHT22;5304;48.604;2.096;2023-06-10T05:22:14;19.00;99.90
10512;DHT22;5304;48.604;2.096;2023-06-10T05:25:00;19.20;99.90
10512;DHT22;5304;48.604;2.096;2023-06-10T05:27:44;19.30;99.90
10512;DHT22;5304;48.604;2.096;2023-06-10T05:30:29;19.40;99.90
10512;DHT22;5304;48.604;2.096;2023-06-10T05:33:14;19.50;99.90
10512;DHT22;5304;48.604;2.096;2023-06-10T05:35:59;19.60;99.90
10512;DHT22;5304;48.604;2.096;2023-06-10T05:38:43;19.70;99.90
10512;DHT22;5304;48.604;2.096;2023-06-10T05:41:27;19.80;99.90
10512;DHT22;5304;48.604;2.096;2023-06-10T05:44:11;19.90;99.90
10512;DHT22;5304;48.604;2.096;2023-06-10T05:46:55;19.90;99.90
10512;DHT22;5304;48.604;2.096;2023-06-10T05:49:40;20.10;99.90
10512;DHT22;5304;48.604;2.096;2023-06-10T05:52:24;20.20;99.90
10512;DHT22;5304;48.604;2.096;2023-06-10T05:55:09;20.30;99.90
10512;DHT22;5304;48.604;2.096;2023-06-10T05:58:00;20.30;99.90
10512;DHT22;5304;48.604;2.096;2023-06-10T06:00:45;20.40;99.90
10512;DHT22;5304;48.604;2.096;2023-06-10T06:03:29;20.50;99.90
10512;DHT22;5304;48.604;2.096;2023-06-10T06:06:14;20.60;99.90
10512;DHT22;5304;48.604;2.096;2023-06-10T06:08:58;20.80;99.90
10512;DHT22;5304;48.604;2.096;2023-06-10T06:11:43;21.20;99.90
10512;DHT22;5304;48.604;2.096;2023-06-10T06:14:31;21.50;99.90
10512;DHT22;5304;48.604;2.096;2023-06-10T06:17:16;21.70;99.90
10512;DHT22;5304;48.604;2.096;2023-06-10T06:20:01;21.60;99.90
10512;DHT22;5304;48.604;2.096;2023-06-10T06:22:45;21.50;99.90
10512;DHT22;5304;48.604;2.096;2023-06-10T06:25:30;21.50;99.90
10512;DHT22;5304;48.604;2.096;2023-06-10T06:28:14;21.60;99.90
10512;DHT22;5304;48.604;2.096;2023-06-10T06:30:59;21.70;99.90
10512;DHT22;5304;48.604;2.096;2023-06-10T06:33:43;21.80;99.90
10512;DHT22;5304;48.604;2.096;2023-06-10T06:36:28;21.90;99.90
10512;DHT22;5304;48.604;2.096;2023-06-10T06:39:12;22.10;99.90
10512;DHT22;5304;48.604;2.096;2023-06-10T06:41:57;22.20;99.90
10512;DHT22;5304;48.604;2.096;2023-06-10T06:44:42;22.30;99.90
10512;DHT22;5304;48.604;2.096;2023-06-10T06:47:27;22.30;99.90
10512;DHT22;5304;48.604;2.096;2023-06-10T06:50:11;22.40;99.90
10512;DHT22;5304;48.604;2.096;2023-06-10T06:52:56;22.60;99.90
10512;DHT22;5304;48.604;2.096;2023-06-10T06:55:40;22.80;99.90
10512;DHT22;5304;48.604;2.096;2023-06-10T06:58:24;22.90;99.90
10512;DHT22;5304;48.604;2.096;2023-06-10T07:01:08;23.10;99.90
10512;DHT22;5304;48.604;2.096;2023-06-10T07:03:53;23.30;99.90
10512;DHT22;5304;48.604;2.096;2023-06-10T07:06:38;23.50;99.90
10512;DHT22;5304;48.604;2.096;2023-06-10T07:09:22;23.50;99.90
10512;DHT22;5304;48.604;2.096;2023-06-10T07:12:07;23.60;99.90
10512;DHT22;5304;48.604;2.096;2023-06-10T07:14:51;23.90;99.90
10512;DHT22;5304;48.604;2.096;2023-06-10T07:17:36;24.40;99.90
10512;DHT22;5304;48.604;2.096;2023-06-10T07:20:20;24.80;99.90
10512;DHT22;5304;48.604;2.096;2023-06-10T07:23:05;25.00;99.90
10512;DHT22;5304;48.604;2.096;2023-06-10T07:25:49;24.90;99.90
10512;DHT22;5304;48.604;2.096;2023-06-10T07:28:34;24.80;99.90
10512;DHT22;5304;48.604;2.096;2023-06-10T07:31:18;24.90;99.90
10512;DHT22;5304;48.604;2.096;2023-06-10T07:34:03;25.40;99.90
10512;DHT22;5304;48.604;2.096;2023-06-10T07:36:47;25.80;99.90
10512;DHT22;5304;48.604;2.096;2023-06-10T07:39:32;26.20;99.90
10512;DHT22;5304;48.604;2.096;2023-06-10T07:42:16;26.20;99.90
10512;DHT22;5304;48.604;2.096;2023-06-10T07:45:01;26.20;99.90
10512;DHT22;5304;48.604;2.096;2023-06-10T07:47:46;26.00;99.90
10512;DHT22;5304;48.604;2.096;2023-06-10T07:50:30;25.90;99.90
10512;DHT22;5304;48.604;2.096;2023-06-10T07:53:15;25.80;99.90
10512;DHT22;5304;48.604;2.096;2023-06-10T07:55:59;26.00;99.90
10512;DHT22;5304;48.604;2.096;2023-06-10T07:58:43;26.40;99.90
10512;DHT22;5304;48.604;2.096;2023-06-10T08:01:28;27.10;99.90
10512;DHT22;5304;48.604;2.096;2023-06-10T08:04:14;27.60;99.90
10512;DHT22;5304;48.604;2.096;2023-06-10T08:06:58;27.60;99.90
10512;DHT22;5304;48.604;2.096;2023-06-10T08:09:43;28.10;99.90
10512;DHT22;5304;48.604;2.096;2023-06-10T08:12:27;28.80;99.90
10512;DHT22;5304;48.604;2.096;2023-06-10T08:15:12;29.20;99.90
10512;DHT22;5304;48.604;2.096;2023-06-10T08:17:56;28.80;99.90
10512;DHT22;5304;48.604;2.096;2023-06-10T08:20:40;28.40;99.90
10512;DHT22;5304;48.604;2.096;2023-06-10T08:23:25;28.30;99.90
10512;DHT22;5304;48.604;2.096;2023-06-10T08:26:09;28.40;99.90
10512;DHT22;5304;48.604;2.096;2023-06-10T08:28:54;28.30;99.90
10512;DHT22;5304;48.604;2.096;2023-06-10T08:31:43;27.80;99.90
10512;DHT22;5304;48.604;2.096;2023-06-10T08:34:28;27.30;99.90
10512;DHT22;5304;48.604;2.096;2023-06-10T08:37:12;26.90;99.90
10512;DHT22;5304;48.604;2.096;2023-06-10T08:39:57;27.20;99.90
10512;DHT22;5304;48.604;2.096;2023-06-10T08:42:48;26.80;99.90
10512;DHT22;5304;48.604;2.096;2023-06-10T08:45:37;26.70;99.90
10512;DHT22;5304;48.604;2.096;2023-06-10T08:48:22;26.50;99.90
10512;DHT22;5304;48.604;2.096;2023-06-10T08:51:07;26.50;99.90
10512;DHT22;5304;48.604;2.096;2023-06-10T08:54:01;26.80;99.90
10512;DHT22;5304;48.604;2.096;2023-06-10T08:56:49;26.80;99.90
10512;DHT22;5304;48.604;2.096;2023-06-10T08:59:37;26.80;99.90
10512;DHT22;5304;48.604;2.096;2023-06-10T09:02:24;26.70;99.90
10512;DHT22;5304;48.604;2.096;2023-06-10T09:05:09;26.60;99.90
10512;DHT22;5304;48.604;2.096;2023-06-10T09:07:56;26.80;99.90
10512;DHT22;5304;48.604;2.096;2023-06-10T09:10:41;26.90;99.90
10512;DHT22;5304;48.604;2.096;2023-06-10T09:13:26;26.80;99.90
10512;DHT22;5304;48.604;2.096;2023-06-10T09:16:10;26.70;99.90
10512;DHT22;5304;48.604;2.096;2023-06-10T09:18:57;27.00;99.90
10512;DHT22;5304;48.604;2.096;2023-06-10T09:21:43;27.00;99.90
10512;DHT22;5304;48.604;2.096;2023-06-10T09:24:28;26.60;99.90
10512;DHT22;5304;48.604;2.096;2023-06-10T09:27:13;26.70;99.90
10512;DHT22;5304;48.604;2.096;2023-06-10T09:29:57;27.00;99.90
10512;DHT22;5304;48.604;2.096;2023-06-10T09:32:43;27.10;99.90
10512;DHT22;5304;48.604;2.096;2023-06-10T09:35:28;27.40;99.90
10512;DHT22;5304;48.604;2.096;2023-06-10T09:38:15;27.70;99.90
10512;DHT22;5304;48.604;2.096;2023-06-10T09:41:03;27.90;99.90
10512;DHT22;5304;48.604;2.096;2023-06-10T09:43:48;28.20;99.90
10512;DHT22;5304;48.604;2.096;2023-06-10T09:46:33;27.90;99.90
10512;DHT22;5304;48.604;2.096;2023-06-10T09:49:17;27.60;99.90
10512;DHT22;5304;48.604;2.096;2023-06-10T09:52:05;27.70;99.90
10512;DHT22;5304;48.604;2.096;2023-06-10T09:54:51;27.70;99.90
10512;DHT22;5304;48.604;2.096;2023-06-10T09:57:36;28.00;99.90
10512;DHT22;5304;48.604;2.096;2023-06-10T10:00:22;28.40;99.90
10512;DHT22;5304;48.604;2.096;2023-06-10T10:03:06;28.40;99.90
10512;DHT22;5304;48.604;2.096;2023-06-10T10:05:58;28.50;99.90
10512;DHT22;5304;48.604;2.096;2023-06-10T10:08:45;28.60;99.90
10512;DHT22;5304;48.604;2.096;2023-06-10T10:11:30;28.30;99.90
10512;DHT22;5304;48.604;2.096;2023-06-10T10:14:16;28.50;99.90
10512;DHT22;5304;48.604;2.096;2023-06-10T10:17:01;28.20;99.90
10512;DHT22;5304;48.604;2.096;2023-06-10T10:19:50;28.20;99.90
10512;DHT22;5304;48.604;2.096;2023-06-10T10:22:39;28.40;99.90
10512;DHT22;5304;48.604;2.096;2023-06-10T10:25:27;29.00;99.90
10512;DHT22;5304;48.604;2.096;2023-06-10T10:28:14;29.40;99.90
10512;DHT22;5304;48.604;2.096;2023-06-10T10:31:06;29.60;99.90
10512;DHT22;5304;48.604;2.096;2023-06-10T10:33:58;29.80;99.90
10512;DHT22;5304;48.604;2.096;2023-06-10T10:36:43;29.60;99.90
10512;DHT22;5304;48.604;2.096;2023-06-10T10:39:28;29.30;99.90
10512;DHT22;5304;48.604;2.096;2023-06-10T10:42:14;28.80;99.90
10512;DHT22;5304;48.604;2.096;2023-06-10T10:45:00;28.40;99.90
10512;DHT22;5304;48.604;2.096;2023-06-10T10:47:45;28.30;99.90
10512;DHT22;5304;48.604;2.096;2023-06-10T10:50:30;28.50;99.90
10512;DHT22;5304;48.604;2.096;2023-06-10T10:53:19;28.60;99.90
10512;DHT22;5304;48.604;2.096;2023-06-10T10:56:14;28.70;99.90
10512;DHT22;5304;48.604;2.096;2023-06-10T10:59:05;28.60;99.90
10512;DHT22;5304;48.604;2.096;2023-06-10T11:01:49;28.90;99.90
10512;DHT22;5304;48.604;2.096;2023-06-10T11:04:34;29.30;99.90
10512;DHT22;5304;48.604;2.096;2023-06-10T11:07:20;29.20;99.90
10512;DHT22;5304;48.604;2.096;2023-06-10T11:10:08;29.50;99.90
10512;DHT22;5304;48.604;2.096;2023-06-10T11:12:54;29.30;99.90
10512;DHT22;5304;48.604;2.096;2023-06-10T11:15:43;28.80;99.90
10512;DHT22;5304;48.604;2.096;2023-06-10T11:18:38;28.70;99.90
10512;DHT22;5304;48.604;2.096;2023-06-10T11:21:24;29.00;99.90
10512;DHT22;5304;48.604;2.096;2023-06-10T11:24:13;28.70;99.90
10512;DHT22;5304;48.604;2.096;2023-06-10T11:27:17;28.40;99.90
10512;DHT22;5304;48.604;2.096;2023-06-10T11:32:51;28.50;99.90
10512;DHT22;5304;48.604;2.096;2023-06-10T11:35:35;28.50;99.90
10512;DHT22;5304;48.604;2.096;2023-06-10T11:38:20;28.80;99.90
10512;DHT22;5304;48.604;2.096;2023-06-10T11:41:05;28.90;99.90
10512;DHT22;5304;48.604;2.096;2023-06-10T11:43:49;28.70;99.90
10512;DHT22;5304;48.604;2.096;2023-06-10T11:46:34;28.30;99.90
10512;DHT22;5304;48.604;2.096;2023-06-10T11:49:20;27.80;99.90
10512;DHT22;5304;48.604;2.096;2023-06-10T11:52:05;27.60;99.90
10512;DHT22;5304;48.604;2.096;2023-06-10T11:54:55;27.60;99.90
10512;DHT22;5304;48.604;2.096;2023-06-10T11:57:40;27.70;99.90
10512;DHT22;5304;48.604;2.096;2023-06-10T12:00:25;28.20;99.90
10512;DHT22;5304;48.604;2.096;2023-06-10T12:03:09;28.70;99.90
10512;DHT22;5304;48.604;2.096;2023-06-10T12:06:04;29.00;99.90
10512;DHT22;5304;48.604;2.096;2023-06-10T12:08:48;28.70;99.90
10512;DHT22;5304;48.604;2.096;2023-06-10T12:11:33;28.70;99.90
10512;DHT22;5304;48.604;2.096;2023-06-10T12:14:55;29.00;99.90
10512;DHT22;5304;48.604;2.096;2023-06-10T12:17:43;28.80;99.90
10512;DHT22;5304;48.604;2.096;2023-06-10T12:20:29;28.40;99.90
10512;DHT22;5304;48.604;2.096;2023-06-10T12:23:14;28.50;99.90
10512;DHT22;5304;48.604;2.096;2023-06-10T12:25:59;28.90;99.90
10512;DHT22;5304;48.604;2.096;2023-06-10T12:28:50;28.70;99.90
10512;DHT22;5304;48.604;2.096;2023-06-10T12:31:55;28.90;99.90
10512;DHT22;5304;48.604;2.096;2023-06-10T12:34:39;29.00;99.90
10512;DHT22;5304;48.604;2.096;2023-06-10T12:37:24;28.90;99.90
10512;DHT22;5304;48.604;2.096;2023-06-10T12:40:09;28.90;99.90
10512;DHT22;5304;48.604;2.096;2023-06-10T12:42:54;29.20;99.90
10512;DHT22;5304;48.604;2.096;2023-06-10T12:45:40;29.50;99.90
10512;DHT22;5304;48.604;2.096;2023-06-10T12:48:28;29.40;99.90
10512;DHT22;5304;48.604;2.096;2023-06-10T12:51:13;29.50;99.90
10512;DHT22;5304;48.604;2.096;2023-06-10T12:53:57;29.40;99.90
10512;DHT22;5304;48.604;2.096;2023-06-10T12:56:42;29.50;99.90
10512;DHT22;5304;48.604;2.096;2023-06-10T12:59:27;29.40;99.90
10512;DHT22;5304;48.604;2.096;2023-06-10T13:02:11;29.60;99.90
10512;DHT22;5304;48.604;2.096;2023-06-10T13:04:57;29.80;99.90
10512;DHT22;5304;48.604;2.096;2023-06-10T13:07:41;29.90;99.90
10512;DHT22;5304;48.604;2.096;2023-06-10T13:10:26;29.90;99.90
10512;DHT22;5304;48.604;2.096;2023-06-10T13:13:11;29.80;99.90
10512;DHT22;5304;48.604;2.096;2023-06-10T13:15:55;30.10;99.90
10512;DHT22;5304;48.604;2.096;2023-06-10T13:18:40;30.10;99.90
10512;DHT22;5304;48.604;2.096;2023-06-10T13:21:25;30.10;99.90
10512;DHT22;5304;48.604;2.096;2023-06-10T13:24:10;29.90;99.90
10512;DHT22;5304;48.604;2.096;2023-06-10T13:26:55;29.80;99.90
10512;DHT22;5304;48.604;2.096;2023-06-10T13:29:40;29.70;99.90
10512;DHT22;5304;48.604;2.096;2023-06-10T13:32:25;29.60;99.90
10512;DHT22;5304;48.604;2.096;2023-06-10T13:35:10;30.00;99.90
10512;DHT22;5304;48.604;2.096;2023-06-10T13:37:54;30.10;99.90
10512;DHT22;5304;48.604;2.096;2023-06-10T13:40:39;30.30;99.90
10512;DHT22;5304;48.604;2.096;2023-06-10T13:43:24;30.40;99.90
10512;DHT22;5304;48.604;2.096;2023-06-10T13:46:08;29.60;99.90
10512;DHT22;5304;48.604;2.096;2023-06-10T13:48:52;29.50;99.90
10512;DHT22;5304;48.604;2.096;2023-06-10T13:51:37;29.50;99.90
10512;DHT22;5304;48.604;2.096;2023-06-10T13:54:21;29.40;99.90
10512;DHT22;5304;48.604;2.096;2023-06-10T13:57:06;29.60;99.90
10512;DHT22;5304;48.604;2.096;2023-06-10T13:59:50;29.70;99.90
10512;DHT22;5304;48.604;2.096;2023-06-10T14:02:35;29.60;99.90
10512;DHT22;5304;48.604;2.096;2023-06-10T14:05:20;29.20;99.90
10512;DHT22;5304;48.604;2.096;2023-06-10T14:08:04;29.30;99.90
10512;DHT22;5304;48.604;2.096;2023-06-10T14:10:49;29.60;99.90
10512;DHT22;5304;48.604;2.096;2023-06-10T14:13:35;29.70;99.90
10512;DHT22;5304;48.604;2.096;2023-06-10T14:16:22;29.50;99.90
10512;DHT22;5304;48.604;2.096;2023-06-10T14:19:06;29.20;99.90
10512;DHT22;5304;48.604;2.096;2023-06-10T14:21:51;29.30;99.90
10512;DHT22;5304;48.604;2.096;2023-06-10T14:24:37;29.30;99.90
10512;DHT22;5304;48.604;2.096;2023-06-10T14:27:22;29.10;99.90
10512;DHT22;5304;48.604;2.096;2023-06-10T14:30:07;29.30;99.90
10512;DHT22;5304;48.604;2.096;2023-06-10T14:32:52;29.30;99.90
10512;DHT22;5304;48.604;2.096;2023-06-10T14:35:36;29.20;99.90
10512;DHT22;5304;48.604;2.096;2023-06-10T14:38:20;29.30;99.90
10512;DHT22;5304;48.604;2.096;2023-06-10T14:41:05;29.40;99.90
10512;DHT22;5304;48.604;2.096;2023-06-10T14:43:49;29.50;99.90
10512;DHT22;5304;48.604;2.096;2023-06-10T14:46:34;29.40;99.90
10512;DHT22;5304;48.604;2.096;2023-06-10T14:49:18;29.40;99.90
10512;DHT22;5304;48.604;2.096;2023-06-10T14:52:03;29.30;99.90
10512;DHT22;5304;48.604;2.096;2023-06-10T14:54:48;29.30;99.90
10512;DHT22;5304;48.604;2.096;2023-06-10T14:57:32;29.20;99.90
10512;DHT22;5304;48.604;2.096;2023-06-10T15:00:16;29.30;99.90
10512;DHT22;5304;48.604;2.096;2023-06-10T15:03:04;29.50;99.90
10512;DHT22;5304;48.604;2.096;2023-06-10T15:05:48;29.70;99.90
10512;DHT22;5304;48.604;2.096;2023-06-10T15:08:32;29.40;99.90
10512;DHT22;5304;48.604;2.096;2023-06-10T15:11:17;29.00;99.90
10512;DHT22;5304;48.604;2.096;2023-06-10T15:14:01;28.80;99.90
10512;DHT22;5304;48.604;2.096;2023-06-10T15:16:46;28.70;99.90
10512;DHT22;5304;48.604;2.096;2023-06-10T15:19:30;28.70;99.90
10512;DHT22;5304;48.604;2.096;2023-06-10T15:22:14;28.70;99.90
10512;DHT22;5304;48.604;2.096;2023-06-10T15:24:59;28.60;99.90
10512;DHT22;5304;48.604;2.096;2023-06-10T15:27:43;28.50;99.90
10512;DHT22;5304;48.604;2.096;2023-06-10T15:30:27;28.60;99.90
10512;DHT22;5304;48.604;2.096;2023-06-10T15:33:12;28.50;99.90
10512;DHT22;5304;48.604;2.096;2023-06-10T15:35:56;28.40;99.90
10512;DHT22;5304;48.604;2.096;2023-06-10T15:38:40;28.40;99.90
10512;DHT22;5304;48.604;2.096;2023-06-10T15:41:25;28.30;99.90
10512;DHT22;5304;48.604;2.096;2023-06-10T15:44:10;28.30;99.90
10512;DHT22;5304;48.604;2.096;2023-06-10T15:46:55;28.40;99.90
10512;DHT22;5304;48.604;2.096;2023-06-10T15:49:39;28.40;99.90
10512;DHT22;5304;48.604;2.096;2023-06-10T15:52:24;28.30;99.90
10512;DHT22;5304;48.604;2.096;2023-06-10T15:55:09;28.30;99.90
10512;DHT22;5304;48.604;2.096;2023-06-10T15:57:53;28.00;99.90
10512;DHT22;5304;48.604;2.096;2023-06-10T16:00:39;27.80;99.90
10512;DHT22;5304;48.604;2.096;2023-06-10T16:03:24;27.60;99.90
10512;DHT22;5304;48.604;2.096;2023-06-10T16:06:08;27.60;99.90
10512;DHT22;5304;48.604;2.096;2023-06-10T16:08:53;27.50;99.90
10512;DHT22;5304;48.604;2.096;2023-06-10T16:11:38;27.40;99.90
10512;DHT22;5304;48.604;2.096;2023-06-10T16:14:22;27.10;99.90
10512;DHT22;5304;48.604;2.096;2023-06-10T16:17:06;27.00;99.90
10512;DHT22;5304;48.604;2.096;2023-06-10T16:19:51;26.70;99.90
10512;DHT22;5304;48.604;2.096;2023-06-10T16:22:35;26.50;99.90
10512;DHT22;5304;48.604;2.096;2023-06-10T16:25:20;26.10;99.90
10512;DHT22;5304;48.604;2.096;2023-06-10T16:28:05;25.70;99.90
10512;DHT22;5304;48.604;2.096;2023-06-10T16:30:49;25.40;99.90
10512;DHT22;5304;48.604;2.096;2023-06-10T16:33:34;25.00;99.90
10512;DHT22;5304;48.604;2.096;2023-06-10T16:36:20;24.70;99.90
10512;DHT22;5304;48.604;2.096;2023-06-10T16:39:04;24.60;99.90
10512;DHT22;5304;48.604;2.096;2023-06-10T16:41:48;24.40;99.90
10512;DHT22;5304;48.604;2.096;2023-06-10T16:44:33;24.30;99.90
10512;DHT22;5304;48.604;2.096;2023-06-10T16:47:18;24.10;99.90
10512;DHT22;5304;48.604;2.096;2023-06-10T16:50:02;24.10;99.90
10512;DHT22;5304;48.604;2.096;2023-06-10T16:52:47;24.20;99.90
10512;DHT22;5304;48.604;2.096;2023-06-10T16:55:32;24.20;99.90
10512;DHT22;5304;48.604;2.096;2023-06-10T16:58:16;24.30;99.90
10512;DHT22;5304;48.604;2.096;2023-06-10T17:01:06;24.40;99.90
10512;DHT22;5304;48.604;2.096;2023-06-10T17:03:51;24.30;99.90
10512;DHT22;5304;48.604;2.096;2023-06-10T17:06:36;24.40;99.90
10512;DHT22;5304;48.604;2.096;2023-06-10T17:09:22;24.40;99.90
10512;DHT22;5304;48.604;2.096;2023-06-10T17:12:07;24.40;99.90
10512;DHT22;5304;48.604;2.096;2023-06-10T17:14:52;24.40;99.90
10512;DHT22;5304;48.604;2.096;2023-06-10T17:17:36;24.30;99.90
10512;DHT22;5304;48.604;2.096;2023-06-10T17:20:21;24.20;99.90
10512;DHT22;5304;48.604;2.096;2023-06-10T17:23:05;24.10;99.90
10512;DHT22;5304;48.604;2.096;2023-06-10T17:25:51;24.10;99.90
10512;DHT22;5304;48.604;2.096;2023-06-10T17:28:36;24.10;99.90
10512;DHT22;5304;48.604;2.096;2023-06-10T17:31:20;24.00;99.90
10512;DHT22;5304;48.604;2.096;2023-06-10T17:34:05;23.90;99.90
10512;DHT22;5304;48.604;2.096;2023-06-10T17:36:50;23.80;99.90
10512;DHT22;5304;48.604;2.096;2023-06-10T17:39:34;23.80;99.90
10512;DHT22;5304;48.604;2.096;2023-06-10T17:42:19;23.60;99.90
10512;DHT22;5304;48.604;2.096;2023-06-10T17:45:04;23.50;99.90
10512;DHT22;5304;48.604;2.096;2023-06-10T17:47:48;23.40;99.90